createdAt,value
2023-04-02T00:00:17.080Z,9.40
2023-04-02T00:02:49.315Z,9.50
2023-04-02T00:05:30.081Z,9.50
2023-04-02T00:08:10.304Z,9.50
2023-04-02T00:10:46.129Z,9.40
2023-04-02T00:13:13.065Z,9.40
2023-04-02T00:15:42.555Z,9.20
2023-04-02T00:18:17.225Z,9.20
2023-04-02T00:20:52.948Z,9.40
2023-04-02T00:23:19.966Z,9.40
2023-04-02T00:25:47.285Z,9.50
2023-04-02T00:28:20.977Z,9.50
2023-04-02T00:30:52.513Z,9.50
2023-04-02T00:33:22.017Z,9.60
2023-04-02T00:35:52.535Z,9.60
2023-04-02T00:38:32.185Z,9.60
2023-04-02T00:41:05.267Z,9.60
2023-04-02T00:43:36.109Z,9.60
2023-04-02T00:46:10.661Z,9.70
2023-04-02T00:48:50.519Z,9.70
2023-04-02T00:51:29.709Z,9.50
2023-04-02T00:54:00.693Z,9.50
2023-04-02T00:56:40.668Z,9.60
2023-04-02T00:59:27.415Z,9.60
2023-04-02T01:02:19.813Z,9.70
2023-04-02T01:05:20.287Z,9.80
2023-04-02T01:08:14.224Z,9.70
2023-04-02T01:11:03.993Z,9.80
2023-04-02T01:13:59.137Z,9.80
2023-04-02T01:16:36.450Z,9.70
2023-04-02T01:19:28.868Z,9.80
2023-04-02T01:22:18.279Z,9.80
2023-04-02T01:24:45.556Z,9.80
2023-04-02T01:27:26.686Z,9.80
2023-04-02T01:29:58.448Z,9.80
2023-04-02T01:32:28.777Z,9.60
2023-04-02T01:34:56.318Z,9.60
2023-04-02T01:37:32.332Z,9.60
2023-04-02T01:40:22.469Z,9.60
2023-04-02T01:43:16.529Z,9.50
2023-04-02T01:45:43.710Z,9.50
2023-04-02T01:48:27.375Z,9.60
2023-04-02T01:50:56.850Z,9.60
2023-04-02T01:53:27.661Z,9.70
2023-04-02T01:56:00.754Z,9.70
2023-04-02T01:58:31.742Z,9.60
2023-04-02T02:01:05.875Z,9.70
2023-04-02T02:03:33.723Z,9.70
2023-04-02T02:06:05.640Z,9.70
2023-04-02T02:08:44.926Z,9.80
2023-04-02T02:11:16.237Z,9.80
2023-04-02T02:13:55.004Z,9.70
2023-04-02T02:16:22.558Z,9.70
2023-04-02T02:18:53.298Z,9.70
2023-04-02T02:21:44.336Z,9.70
2023-04-02T02:24:35.675Z,9.60
2023-04-02T02:27:28.965Z,9.70
2023-04-02T02:30:07.473Z,9.70
2023-04-02T02:32:39.114Z,9.70
2023-04-02T02:35:23.574Z,9.70
2023-04-02T02:38:21.931Z,9.70
2023-04-02T02:40:54.621Z,9.70
2023-04-02T02:43:21.780Z,9.70
2023-04-02T02:45:49.860Z,9.70
2023-04-02T02:48:20.343Z,9.60
2023-04-02T02:50:49.258Z,9.60
2023-04-02T02:53:21.937Z,9.60
2023-04-02T02:55:56.445Z,9.60
2023-04-02T02:58:31.381Z,9.70
2023-04-02T03:01:14.846Z,9.60
2023-04-02T03:03:44.758Z,9.60
2023-04-02T03:06:20.667Z,9.70
2023-04-02T03:09:23.984Z,9.70
2023-04-02T03:12:04.128Z,9.70
2023-04-02T03:14:48.848Z,9.70
2023-04-02T03:17:36.722Z,9.70
2023-04-02T03:20:16.058Z,9.60
2023-04-02T03:23:03.170Z,9.60
2023-04-02T03:25:30.526Z,9.60
2023-04-02T03:28:04.702Z,9.60
2023-04-02T03:30:56.600Z,9.60
2023-04-02T03:33:38.483Z,9.50
2023-04-02T03:36:46.599Z,9.60
2023-04-02T03:39:46.587Z,9.50
2023-04-02T03:42:22.007Z,9.40
2023-04-02T03:44:55.988Z,9.50
2023-04-02T03:47:44.069Z,9.50
2023-04-02T03:50:11.247Z,9.50
2023-04-02T03:52:39.267Z,9.50
2023-04-02T03:55:24.244Z,9.50
2023-04-02T03:58:01.462Z,9.50
2023-04-02T04:00:29.960Z,9.50
2023-04-02T04:03:06.055Z,9.40
2023-04-02T04:05:37.248Z,9.40
2023-04-02T04:08:15.319Z,9.40
2023-04-02T04:10:43.583Z,9.40
2023-04-02T04:13:16.077Z,9.50
2023-04-02T04:15:46.013Z,9.50
2023-04-02T04:18:34.733Z,9.50
2023-04-02T04:21:22.732Z,9.50
2023-04-02T04:23:51.304Z,9.50
2023-04-02T04:26:31.002Z,9.50
2023-04-02T04:29:46.469Z,9.50
2023-04-02T04:32:34.320Z,9.60
2023-04-02T04:35:36.843Z,9.50
2023-04-02T04:38:27.650Z,9.50
2023-04-02T04:41:17.102Z,9.50
2023-04-02T04:44:01.168Z,9.50
2023-04-02T04:46:31.502Z,9.40
2023-04-02T04:49:04.688Z,9.40
2023-04-02T04:51:45.475Z,9.40
2023-04-02T04:54:15.046Z,9.40
2023-04-02T04:56:48.131Z,9.30
2023-04-02T04:59:38.050Z,9.30
2023-04-02T05:02:33.258Z,9.30
2023-04-02T05:05:02.261Z,9.40
2023-04-02T05:07:32.590Z,9.30
2023-04-02T05:10:18.181Z,9.20
2023-04-02T05:12:55.208Z,9.20
2023-04-02T05:15:43.412Z,9.20
2023-04-02T05:18:26.012Z,9.20
2023-04-02T05:21:19.125Z,9.20
2023-04-02T05:24:04.709Z,9.20
2023-04-02T05:26:47.366Z,9.20
2023-04-02T05:29:20.020Z,9.20
2023-04-02T05:32:15.975Z,9.20
2023-04-02T05:34:48.381Z,9.20
2023-04-02T05:37:24.385Z,9.20
2023-04-02T05:39:58.962Z,9.30
2023-04-02T05:42:34.512Z,9.40
2023-04-02T05:45:16.967Z,9.40
2023-04-02T05:47:46.743Z,9.30
2023-04-02T05:50:27.813Z,9.30
2023-04-02T05:53:08.564Z,9.40
2023-04-02T05:55:51.948Z,9.40
2023-04-02T05:58:35.958Z,9.40
2023-04-02T06:01:24.180Z,9.30
2023-04-02T06:04:01.979Z,9.40
2023-04-02T06:06:51.608Z,9.40
2023-04-02T06:09:30.507Z,9.40
2023-04-02T06:12:19.127Z,9.50
2023-04-02T06:14:47.163Z,9.60
2023-04-02T06:17:17.266Z,9.70
2023-04-02T06:19:45.702Z,9.70
2023-04-02T06:22:32.537Z,9.60
2023-04-02T06:25:10.267Z,9.60
2023-04-02T06:27:42.497Z,9.60
2023-04-02T06:30:20.899Z,9.60
2023-04-02T06:32:51.523Z,9.70
2023-04-02T06:35:19.549Z,9.70
2023-04-02T06:37:58.384Z,9.80
2023-04-02T06:40:40.301Z,9.80
2023-04-02T06:43:30.835Z,9.90
2023-04-02T06:46:20.930Z,9.90
2023-04-02T06:49:29.977Z,9.90
2023-04-02T06:52:03.432Z,9.90
2023-04-02T06:54:31.380Z,10.00
2023-04-02T06:57:04.688Z,10.00
2023-04-02T06:59:35.173Z,10.10
2023-04-02T07:02:13.510Z,10.20
2023-04-02T07:04:42.189Z,10.30
2023-04-02T07:07:09.126Z,10.30
2023-04-02T07:09:38.922Z,10.40
2023-04-02T07:12:13.922Z,10.40
2023-04-02T07:14:42.028Z,10.50
2023-04-02T07:17:18.307Z,10.60
2023-04-02T07:19:49.117Z,10.80
2023-04-02T07:22:19.261Z,11.00
2023-04-02T07:24:49.567Z,11.00
2023-04-02T07:27:16.325Z,11.20
2023-04-02T07:29:43.077Z,11.30
2023-04-02T07:32:13.708Z,11.40
2023-04-02T07:34:41.756Z,11.50
2023-04-02T07:37:12.971Z,11.60
2023-04-02T07:39:40.751Z,11.70
2023-04-02T07:42:08.007Z,11.70
2023-04-02T07:44:34.849Z,11.70
2023-04-02T07:47:01.944Z,11.70
2023-04-02T07:49:28.771Z,11.60
2023-04-02T07:51:55.492Z,11.60
2023-04-02T07:54:22.253Z,11.50
2023-04-02T07:56:49.030Z,11.40
2023-04-02T07:59:15.740Z,11.40
2023-04-02T08:01:43.105Z,11.10
2023-04-02T08:04:18.531Z,11.20
2023-04-02T08:06:46.044Z,11.20
2023-04-02T08:09:13.545Z,11.20
2023-04-02T08:11:42.118Z,11.20
2023-04-02T08:14:10.025Z,11.20
2023-04-02T08:16:52.023Z,11.20
2023-04-02T08:19:19.058Z,11.10
2023-04-02T08:21:48.086Z,11.00
2023-04-02T08:24:14.798Z,10.40
2023-04-02T08:26:42.606Z,10.50
2023-04-02T08:29:10.841Z,10.50
2023-04-02T08:31:37.560Z,11.00
2023-04-02T08:34:04.613Z,11.20
2023-04-02T08:36:35.492Z,11.40
2023-04-02T08:39:04.434Z,11.70
2023-04-02T08:41:36.989Z,11.90
2023-04-02T08:44:21.806Z,12.20
2023-04-02T08:47:01.305Z,12.30
2023-04-02T08:49:48.530Z,12.40
2023-04-02T08:52:27.208Z,12.60
2023-04-02T08:54:56.263Z,12.80
2023-04-02T08:57:32.018Z,12.70
2023-04-02T09:00:10.122Z,12.50
2023-04-02T09:02:45.928Z,12.60
2023-04-02T09:05:27.852Z,12.80
2023-04-02T09:07:58.403Z,13.10
2023-04-02T09:10:37.003Z,13.40
2023-04-02T09:13:13.510Z,13.80
2023-04-02T09:15:40.368Z,13.50
2023-04-02T09:18:17.445Z,13.80
2023-04-02T09:20:45.432Z,13.50
2023-04-02T09:23:24.282Z,13.70
2023-04-02T09:26:03.489Z,13.50
2023-04-02T09:28:31.081Z,13.30
2023-04-02T09:31:06.881Z,12.90
2023-04-02T09:34:00.650Z,13.10
2023-04-02T09:36:39.206Z,12.80
2023-04-02T09:39:18.132Z,13.30
2023-04-02T09:41:52.850Z,13.40
2023-04-02T09:44:32.412Z,12.80
2023-04-02T09:47:05.088Z,12.70
2023-04-02T09:49:35.588Z,12.80
2023-04-02T09:52:06.836Z,12.60
2023-04-02T09:54:33.629Z,12.50
2023-04-02T09:57:02.850Z,12.40
2023-04-02T09:59:30.100Z,12.20
2023-04-02T10:02:01.440Z,12.00
2023-04-02T10:04:44.557Z,11.60
2023-04-02T10:07:34.510Z,11.00
2023-04-02T10:10:04.443Z,10.70
2023-04-02T10:12:42.233Z,10.40
2023-04-02T10:15:21.165Z,10.50
2023-04-02T10:18:01.622Z,10.40
2023-04-02T10:20:34.005Z,10.40
2023-04-02T10:23:04.938Z,10.50
2023-04-02T10:25:42.177Z,10.60
2023-04-02T10:28:21.759Z,10.50
2023-04-02T10:31:04.238Z,10.50
2023-04-02T10:33:37.098Z,10.10
2023-04-02T10:36:34.338Z,10.10
2023-04-02T10:39:41.397Z,10.00
2023-04-02T10:42:31.287Z,10.00
2023-04-02T10:45:16.804Z,9.90
2023-04-02T10:48:24.612Z,9.40
2023-04-02T10:51:00.844Z,9.10
2023-04-02T10:53:59.197Z,9.40
2023-04-02T10:56:31.321Z,9.20
2023-04-02T10:59:09.685Z,9.10
2023-04-02T11:01:37.605Z,9.20
2023-04-02T11:04:14.258Z,9.10
2023-04-02T11:07:13.175Z,9.10
2023-04-02T11:09:46.083Z,8.70
2023-04-02T11:12:42.962Z,8.90
2023-04-02T11:15:19.861Z,8.60
2023-04-02T11:17:47.935Z,8.50
2023-04-02T11:20:44.090Z,8.50
2023-04-02T11:23:17.960Z,8.50
2023-04-02T11:25:45.910Z,8.60
2023-04-02T11:28:18.566Z,8.70
2023-04-02T11:30:48.382Z,8.80
2023-04-02T11:33:38.610Z,8.70
2023-04-02T11:36:49.780Z,8.70
2023-04-02T11:39:53.299Z,8.60
2023-04-02T11:42:19.947Z,8.70
2023-04-02T11:44:46.665Z,8.60
2023-04-02T11:47:22.198Z,8.60
2023-04-02T11:49:55.291Z,8.60
2023-04-02T11:52:34.325Z,8.60
2023-04-02T11:55:24.225Z,8.60
2023-04-02T11:57:56.146Z,8.80
2023-04-02T12:00:35.181Z,8.80
2023-04-02T12:03:16.499Z,8.50
2023-04-02T12:06:13.254Z,8.20
2023-04-02T12:08:57.689Z,8.20
2023-04-02T12:11:39.873Z,8.30
2023-04-02T12:14:37.781Z,8.30
2023-04-02T12:17:13.936Z,8.40
2023-04-02T12:19:41.049Z,8.40
2023-04-02T12:22:28.853Z,8.00
2023-04-02T12:25:03.812Z,7.90
2023-04-02T12:27:30.946Z,7.90
2023-04-02T12:30:22.933Z,7.80
2023-04-02T12:32:50.382Z,8.10
2023-04-02T12:35:33.093Z,8.10
2023-04-02T12:38:00.001Z,8.00
2023-04-02T12:40:27.109Z,8.00
2023-04-02T12:42:53.834Z,8.00
2023-04-02T12:45:33.273Z,7.90
2023-04-02T12:48:05.683Z,7.70
2023-04-02T12:50:34.130Z,7.90
2023-04-02T12:53:01.712Z,7.70
2023-04-02T12:55:28.591Z,7.90
2023-04-02T12:58:00.013Z,7.80
2023-04-02T13:00:29.950Z,8.00
2023-04-02T13:03:06.031Z,8.20
2023-04-02T13:05:41.104Z,8.20
2023-04-02T13:08:22.065Z,8.30
2023-04-02T13:10:55.672Z,8.10
2023-04-02T13:13:36.753Z,8.20
2023-04-02T13:16:27.952Z,8.20
2023-04-02T13:19:21.020Z,7.90
2023-04-02T13:21:47.683Z,7.80
2023-04-02T13:24:25.551Z,7.60
2023-04-02T13:26:58.195Z,7.50
2023-04-02T13:29:33.112Z,7.50
2023-04-02T13:32:06.214Z,7.60
2023-04-02T13:34:33.280Z,7.60
2023-04-02T13:37:00.289Z,7.70
2023-04-02T13:39:27.101Z,7.60
2023-04-02T13:42:01.595Z,7.70
2023-04-02T13:44:31.438Z,7.60
2023-04-02T13:46:58.816Z,7.80
2023-04-02T13:49:26.180Z,7.80
2023-04-02T13:51:57.728Z,7.90
2023-04-02T13:54:43.001Z,7.90
2023-04-02T13:57:09.871Z,7.80
2023-04-02T13:59:36.655Z,8.00
2023-04-02T14:02:08.572Z,8.00
2023-04-02T14:04:44.856Z,7.80
2023-04-02T14:07:33.125Z,7.90
2023-04-02T14:09:59.748Z,7.90
2023-04-02T14:12:34.539Z,7.90
2023-04-02T14:15:20.833Z,7.50
2023-04-02T14:17:59.523Z,7.40
2023-04-02T14:20:51.422Z,7.40
2023-04-02T14:23:39.559Z,7.60
2023-04-02T14:26:09.022Z,7.40
2023-04-02T14:28:51.220Z,7.60
2023-04-02T14:31:35.161Z,7.80
2023-04-02T14:34:32.538Z,7.80
2023-04-02T14:37:37.164Z,7.60
2023-04-02T14:40:11.291Z,7.90
2023-04-02T14:42:47.188Z,8.00
2023-04-02T14:45:27.134Z,8.20
2023-04-02T14:48:17.560Z,8.30
2023-04-02T14:50:44.392Z,8.20
2023-04-02T14:53:31.237Z,8.10
2023-04-02T14:56:01.449Z,8.10
2023-04-02T14:58:34.405Z,8.30
2023-04-02T15:01:13.875Z,8.10
2023-04-02T15:04:04.593Z,7.90
2023-04-02T15:06:36.736Z,7.90
2023-04-02T15:09:33.820Z,8.10
2023-04-02T15:12:08.281Z,8.20
2023-04-02T15:14:52.530Z,8.10
2023-04-02T15:17:20.415Z,7.90
2023-04-02T15:19:47.457Z,8.00
2023-04-02T15:22:22.957Z,8.00
2023-04-02T15:25:34.329Z,7.70
2023-04-02T15:28:17.054Z,7.50
2023-04-02T15:30:45.590Z,7.40
2023-04-02T15:33:27.586Z,7.50
2023-04-02T15:36:01.223Z,7.70
2023-04-02T15:38:42.157Z,7.50
2023-04-02T15:41:23.421Z,7.30
2023-04-02T15:44:13.108Z,7.00
2023-04-02T15:46:56.390Z,7.00
2023-04-02T15:49:38.078Z,7.20
2023-04-02T15:52:30.068Z,7.20
2023-04-02T15:55:02.567Z,7.40
2023-04-02T15:57:51.134Z,7.60
2023-04-02T16:00:27.761Z,7.70
2023-04-02T16:03:20.789Z,7.40
2023-04-02T16:06:26.117Z,7.30
2023-04-02T16:09:03.057Z,7.30
2023-04-02T16:11:30.290Z,7.40
2023-04-02T16:14:10.858Z,7.40
2023-04-02T16:16:40.126Z,7.50
2023-04-02T16:19:28.517Z,7.60
2023-04-02T16:22:32.681Z,7.60
2023-04-02T16:25:16.155Z,7.40
2023-04-02T16:27:52.417Z,7.30
2023-04-02T16:30:43.387Z,7.30
2023-04-02T16:33:29.938Z,7.20
2023-04-02T16:36:33.477Z,7.10
2023-04-02T16:39:29.791Z,7.10
2023-04-02T16:42:10.457Z,6.90
2023-04-02T16:44:42.925Z,7.00
2023-04-02T16:47:27.841Z,7.00
2023-04-02T16:50:02.828Z,7.00
2023-04-02T16:53:00.279Z,7.00
2023-04-02T16:56:05.195Z,6.70
2023-04-02T16:58:51.298Z,6.70
2023-04-02T17:01:29.666Z,6.50
2023-04-02T17:04:30.219Z,6.30
2023-04-02T17:07:16.141Z,6.10
2023-04-02T17:09:53.945Z,6.10
2023-04-02T17:12:44.380Z,6.00
2023-04-02T17:15:27.776Z,6.10
2023-04-02T17:17:58.497Z,6.10
2023-04-02T17:20:26.223Z,5.90
2023-04-02T17:22:54.188Z,6.00
2023-04-02T17:25:32.103Z,6.00
2023-04-02T17:27:58.850Z,6.10
2023-04-02T17:30:46.908Z,5.90
2023-04-02T17:33:18.946Z,5.70
2023-04-02T17:36:19.044Z,5.80
2023-04-02T17:38:54.895Z,5.70
2023-04-02T17:41:43.576Z,5.60
2023-04-02T17:44:35.375Z,5.50
2023-04-02T17:47:23.105Z,5.50
2023-04-02T17:50:32.989Z,5.50
2023-04-02T17:53:13.633Z,5.40
2023-04-02T17:55:59.862Z,5.30
2023-04-02T17:58:57.571Z,5.20
2023-04-02T18:01:36.101Z,5.00
2023-04-02T18:04:08.967Z,5.10
2023-04-02T18:06:38.687Z,5.00
2023-04-02T18:09:26.173Z,4.90
2023-04-02T18:12:13.086Z,4.90
2023-04-02T18:15:15.936Z,4.80
2023-04-02T18:18:11.211Z,4.70
2023-04-02T18:21:07.810Z,4.90
2023-04-02T18:24:28.459Z,4.80
2023-04-02T18:27:25.649Z,5.00
2023-04-02T18:29:58.334Z,5.10
2023-04-02T18:32:54.868Z,4.80
2023-04-02T18:35:55.533Z,4.70
2023-04-02T18:38:47.469Z,4.50
2023-04-02T18:41:35.967Z,4.50
2023-04-02T18:44:36.818Z,4.40
2023-04-02T18:47:24.942Z,4.60
2023-04-02T18:50:15.667Z,4.50
2023-04-02T18:52:42.814Z,4.60
2023-04-02T18:55:20.524Z,4.50
2023-04-02T18:57:51.256Z,4.60
2023-04-02T19:00:36.533Z,4.30
2023-04-02T19:03:17.090Z,4.30
2023-04-02T19:05:49.387Z,4.40
2023-04-02T19:08:33.038Z,4.40
2023-04-02T19:11:09.100Z,4.40
2023-04-02T19:13:35.862Z,4.40
2023-04-02T19:16:20.841Z,4.50
2023-04-02T19:19:15.724Z,4.10
2023-04-02T19:21:51.535Z,4.20
2023-04-02T19:24:55.836Z,4.40
2023-04-02T19:27:37.012Z,4.50
2023-04-02T19:30:09.964Z,4.50
2023-04-02T19:33:07.536Z,4.40
2023-04-02T19:35:53.863Z,4.40
2023-04-02T19:38:35.303Z,4.40
2023-04-02T19:41:26.406Z,4.30
2023-04-02T19:43:54.462Z,4.40
2023-04-02T19:46:21.922Z,4.40
2023-04-02T19:48:57.832Z,4.30
2023-04-02T19:51:24.508Z,4.30
2023-04-02T19:53:51.257Z,4.40
2023-04-02T19:56:17.906Z,4.40
2023-04-02T19:58:44.552Z,4.50
2023-04-02T20:01:11.299Z,4.40
2023-04-02T20:03:38.123Z,4.40
2023-04-02T20:06:05.356Z,4.50
2023-04-02T20:08:32.383Z,4.50
2023-04-02T20:11:00.018Z,4.40
2023-04-02T20:13:26.711Z,4.40
2023-04-02T20:15:53.561Z,4.40
2023-04-02T20:18:20.481Z,4.60
2023-04-02T20:20:48.448Z,4.50
2023-04-02T20:23:16.461Z,4.40
2023-04-02T20:25:53.100Z,4.40
2023-04-02T20:28:24.712Z,4.40
2023-04-02T20:30:51.558Z,4.40
2023-04-02T20:33:23.742Z,4.40
2023-04-02T20:35:51.987Z,4.30
2023-04-02T20:38:19.269Z,4.40
2023-04-02T20:40:52.006Z,4.40
2023-04-02T20:43:18.753Z,4.50
2023-04-02T20:45:54.900Z,4.50
2023-04-02T20:48:23.227Z,4.60
2023-04-02T20:50:50.182Z,4.60
2023-04-02T20:53:17.805Z,4.40
2023-04-02T20:55:45.840Z,4.60
2023-04-02T20:58:14.990Z,4.50
2023-04-02T21:00:41.954Z,4.40
2023-04-02T21:03:09.920Z,4.50
2023-04-02T21:05:45.017Z,4.60
2023-04-02T21:08:12.726Z,4.70
2023-04-02T21:10:40.301Z,4.80
2023-04-02T21:13:07.337Z,4.80
2023-04-02T21:15:34.544Z,4.70
2023-04-02T21:18:01.340Z,4.80
2023-04-02T21:20:28.096Z,4.70
2023-04-02T21:22:54.778Z,4.80
2023-04-02T21:25:21.432Z,4.90
2023-04-02T21:27:48.087Z,4.80
2023-04-02T21:30:14.868Z,4.70
2023-04-02T21:32:41.536Z,4.90
2023-04-02T21:35:08.885Z,4.70
2023-04-02T21:37:35.730Z,4.50
2023-04-02T21:40:02.536Z,4.50
2023-04-02T21:42:29.265Z,4.60
2023-04-02T21:44:55.939Z,4.60
2023-04-02T21:47:23.650Z,4.50
2023-04-02T21:49:50.599Z,4.60
2023-04-02T21:52:17.264Z,4.70
2023-04-02T21:54:43.884Z,4.70
2023-04-02T21:57:10.763Z,4.70
2023-04-02T21:59:37.485Z,4.70
2023-04-02T22:02:04.758Z,4.70
2023-04-02T22:04:33.222Z,4.60
2023-04-02T22:07:00.280Z,4.50
2023-04-02T22:09:27.498Z,4.50
2023-04-02T22:11:59.846Z,4.50
2023-04-02T22:14:27.430Z,4.50
2023-04-02T22:16:54.603Z,4.40
2023-04-02T22:19:21.366Z,4.40
2023-04-02T22:21:48.002Z,4.40
2023-04-02T22:24:18.773Z,4.30
2023-04-02T22:26:46.005Z,4.30
2023-04-02T22:29:12.866Z,4.30
2023-04-02T22:31:39.664Z,4.40
2023-04-02T22:34:07.259Z,4.30
2023-04-02T22:36:34.609Z,4.40
2023-04-02T22:39:04.893Z,4.40
2023-04-02T22:41:31.979Z,4.40
2023-04-02T22:44:00.803Z,4.30
2023-04-02T22:46:28.632Z,4.40
2023-04-02T22:48:56.221Z,4.40
2023-04-02T22:51:24.506Z,4.20
2023-04-02T22:53:54.043Z,4.20
2023-04-02T22:56:27.473Z,4.40
2023-04-02T22:58:54.286Z,4.40
2023-04-02T23:01:22.725Z,4.50
2023-04-02T23:03:49.498Z,4.40
2023-04-02T23:06:17.963Z,4.50
2023-04-02T23:08:45.598Z,4.30
2023-04-02T23:11:21.881Z,4.30
2023-04-02T23:13:50.835Z,4.50
2023-04-02T23:16:18.153Z,4.40
2023-04-02T23:18:47.915Z,4.40
2023-04-02T23:21:15.849Z,4.40
2023-04-02T23:23:42.711Z,4.50
2023-04-02T23:26:12.857Z,4.40
2023-04-02T23:28:40.665Z,4.50
2023-04-02T23:31:11.000Z,4.40
2023-04-02T23:33:37.745Z,4.50
2023-04-02T23:36:19.644Z,4.40
2023-04-02T23:38:46.593Z,4.60
2023-04-02T23:41:17.569Z,4.80
2023-04-02T23:43:44.479Z,4.80
2023-04-02T23:46:11.571Z,4.70
2023-04-02T23:48:38.579Z,4.80
2023-04-02T23:51:05.818Z,4.60
2023-04-02T23:53:33.376Z,4.70
2023-04-02T23:56:00.208Z,4.50
2023-04-02T23:58:26.956Z,4.60
